sensor_id;sensor_type;location;lat;lon;timestamp;pressure;altitude;pressure_sealevel;temperature;humidity
10366;BME280;5229;41.820;23.490;2023-05-07T00:01:33;90247.56;;;10.86;61.77
10366;BME280;5229;41.820;23.490;2023-05-07T00:04:00;90250.16;;;10.86;61.25
10366;BME280;5229;41.820;23.490;2023-05-07T00:06:27;90241.59;;;10.86;61.34
10366;BME280;5229;41.820;23.490;2023-05-07T00:08:54;90247.25;;;10.88;61.78
10366;BME280;5229;41.820;23.490;2023-05-07T00:11:22;90245.75;;;10.87;61.82
10366;BME280;5229;41.820;23.490;2023-05-07T00:13:49;90247.84;;;10.85;61.69
10366;BME280;5229;41.820;23.490;2023-05-07T00:16:16;90244.97;;;10.86;61.19
10366;BME280;5229;41.820;23.490;2023-05-07T00:18:43;90248.78;;;10.89;61.64
10366;BME280;5229;41.820;23.490;2023-05-07T00:21:10;90246.38;;;10.92;62.20
10366;BME280;5229;41.820;23.490;2023-05-07T00:23:37;90246.09;;;10.94;61.54
10366;BME280;5229;41.820;23.490;2023-05-07T00:26:04;90250.69;;;10.97;61.41
10366;BME280;5229;41.820;23.490;2023-05-07T00:28:32;90245.31;;;10.93;61.32
10366;BME280;5229;41.820;23.490;2023-05-07T00:30:59;90252.16;;;10.89;61.65
10366;BME280;5229;41.820;23.490;2023-05-07T00:33:26;90251.22;;;10.85;61.82
10366;BME280;5229;41.820;23.490;2023-05-07T00:35:53;90249.81;;;10.79;62.51
10366;BME280;5229;41.820;23.490;2023-05-07T00:38:20;90245.50;;;10.75;62.68
10366;BME280;5229;41.820;23.490;2023-05-07T00:40:47;90254.66;;;10.72;61.80
10366;BME280;5229;41.820;23.490;2023-05-07T00:43:14;90251.00;;;10.73;61.83
10366;BME280;5229;41.820;23.490;2023-05-07T00:45:43;90256.97;;;10.74;62.31
10366;BME280;5229;41.820;23.490;2023-05-07T00:48:09;90257.25;;;10.72;62.63
10366;BME280;5229;41.820;23.490;2023-05-07T00:50:36;90254.66;;;10.72;62.59
10366;BME280;5229;41.820;23.490;2023-05-07T00:53:04;90256.19;;;10.73;62.40
10366;BME280;5229;41.820;23.490;2023-05-07T00:55:31;90260.03;;;10.76;62.15
10366;BME280;5229;41.820;23.490;2023-05-07T00:57:57;90256.84;;;10.79;62.07
10366;BME280;5229;41.820;23.490;2023-05-07T01:00:24;90252.41;;;10.79;62.58
10366;BME280;5229;41.820;23.490;2023-05-07T01:02:52;90254.72;;;10.81;62.22
10366;BME280;5229;41.820;23.490;2023-05-07T01:05:20;90251.53;;;10.84;62.61
10366;BME280;5229;41.820;23.490;2023-05-07T01:07:48;90258.22;;;10.85;62.49
10366;BME280;5229;41.820;23.490;2023-05-07T01:10:17;90253.81;;;10.85;62.44
10366;BME280;5229;41.820;23.490;2023-05-07T01:12:44;90256.72;;;10.84;62.16
10366;BME280;5229;41.820;23.490;2023-05-07T01:15:12;90258.81;;;10.82;62.63
10366;BME280;5229;41.820;23.490;2023-05-07T01:17:41;90265.38;;;10.79;62.90
10366;BME280;5229;41.820;23.490;2023-05-07T01:20:10;90248.41;;;10.73;62.26
10366;BME280;5229;41.820;23.490;2023-05-07T01:22:39;90258.91;;;10.68;62.63
10366;BME280;5229;41.820;23.490;2023-05-07T01:25:07;90259.81;;;10.64;62.86
10366;BME280;5229;41.820;23.490;2023-05-07T01:27:34;90261.75;;;10.58;63.23
10366;BME280;5229;41.820;23.490;2023-05-07T01:30:02;90247.09;;;10.54;62.93
10366;BME280;5229;41.820;23.490;2023-05-07T01:32:32;90236.84;;;10.49;63.47
10366;BME280;5229;41.820;23.490;2023-05-07T01:35:01;90248.28;;;10.48;62.99
10366;BME280;5229;41.820;23.490;2023-05-07T01:37:29;90238.22;;;10.46;63.21
10366;BME280;5229;41.820;23.490;2023-05-07T01:39:57;90237.13;;;10.47;63.61
10366;BME280;5229;41.820;23.490;2023-05-07T01:42:24;90237.63;;;10.49;63.48
10366;BME280;5229;41.820;23.490;2023-05-07T01:44:51;90240.38;;;10.53;63.34
10366;BME280;5229;41.820;23.490;2023-05-07T01:47:19;90242.38;;;10.56;64.15
10366;BME280;5229;41.820;23.490;2023-05-07T01:49:47;90241.00;;;10.58;63.78
10366;BME280;5229;41.820;23.490;2023-05-07T01:52:14;90245.13;;;10.59;62.92
10366;BME280;5229;41.820;23.490;2023-05-07T01:54:41;90245.75;;;10.56;63.63
10366;BME280;5229;41.820;23.490;2023-05-07T01:57:09;90241.16;;;10.53;63.03
10366;BME280;5229;41.820;23.490;2023-05-07T01:59:36;90240.22;;;10.49;62.98
10366;BME280;5229;41.820;23.490;2023-05-07T02:02:02;90235.72;;;10.41;63.81
10366;BME280;5229;41.820;23.490;2023-05-07T02:04:29;90238.25;;;10.33;63.39
10366;BME280;5229;41.820;23.490;2023-05-07T02:06:56;90237.63;;;10.27;63.76
10366;BME280;5229;41.820;23.490;2023-05-07T02:09:23;90235.16;;;10.22;63.90
10366;BME280;5229;41.820;23.490;2023-05-07T02:11:50;90236.81;;;10.18;63.66
10366;BME280;5229;41.820;23.490;2023-05-07T02:14:18;90238.63;;;10.18;64.18
10366;BME280;5229;41.820;23.490;2023-05-07T02:16:45;90231.91;;;10.17;64.08
10366;BME280;5229;41.820;23.490;2023-05-07T02:19:12;90234.81;;;10.15;64.10
10366;BME280;5229;41.820;23.490;2023-05-07T02:21:39;90226.44;;;10.18;63.97
10366;BME280;5229;41.820;23.490;2023-05-07T02:24:06;90236.03;;;10.18;63.80
10366;BME280;5229;41.820;23.490;2023-05-07T02:26:32;90227.97;;;10.19;64.49
10366;BME280;5229;41.820;23.490;2023-05-07T02:28:59;90231.91;;;10.17;64.29
10366;BME280;5229;41.820;23.490;2023-05-07T02:31:27;90227.50;;;10.17;64.33
10366;BME280;5229;41.820;23.490;2023-05-07T02:33:54;90229.91;;;10.14;64.03
10366;BME280;5229;41.820;23.490;2023-05-07T02:36:21;90231.28;;;10.11;63.98
10366;BME280;5229;41.820;23.490;2023-05-07T02:38:48;90235.00;;;10.05;63.77
10366;BME280;5229;41.820;23.490;2023-05-07T02:41:14;90237.22;;;9.98;64.54
10366;BME280;5229;41.820;23.490;2023-05-07T02:43:41;90233.25;;;9.92;64.24
10366;BME280;5229;41.820;23.490;2023-05-07T02:46:08;90230.47;;;9.89;64.55
10366;BME280;5229;41.820;23.490;2023-05-07T02:48:37;90229.81;;;9.83;64.88
10366;BME280;5229;41.820;23.490;2023-05-07T02:51:04;90231.47;;;9.79;65.20
10366;BME280;5229;41.820;23.490;2023-05-07T02:53:31;90238.28;;;9.75;65.07
10366;BME280;5229;41.820;23.490;2023-05-07T02:56:00;90238.56;;;9.74;65.33
10366;BME280;5229;41.820;23.490;2023-05-07T02:58:27;90238.94;;;9.67;65.07
10366;BME280;5229;41.820;23.490;2023-05-07T03:00:54;90238.00;;;9.63;65.41
10366;BME280;5229;41.820;23.490;2023-05-07T03:03:21;90234.97;;;9.61;65.84
10366;BME280;5229;41.820;23.490;2023-05-07T03:05:49;90240.44;;;9.60;65.74
10366;BME280;5229;41.820;23.490;2023-05-07T03:08:16;90239.94;;;9.58;65.91
10366;BME280;5229;41.820;23.490;2023-05-07T03:10:43;90242.81;;;9.56;66.16
10366;BME280;5229;41.820;23.490;2023-05-07T03:13:09;90234.59;;;9.54;66.46
10366;BME280;5229;41.820;23.490;2023-05-07T03:15:36;90226.53;;;9.56;66.14
10366;BME280;5229;41.820;23.490;2023-05-07T03:18:03;90225.47;;;9.57;66.14
10366;BME280;5229;41.820;23.490;2023-05-07T03:20:30;90224.69;;;9.56;66.23
10366;BME280;5229;41.820;23.490;2023-05-07T03:22:58;90231.13;;;9.59;66.13
10366;BME280;5229;41.820;23.490;2023-05-07T03:25:25;90234.47;;;9.59;66.44
10366;BME280;5229;41.820;23.490;2023-05-07T03:27:52;90232.84;;;9.63;66.02
10366;BME280;5229;41.820;23.490;2023-05-07T03:30:19;90229.66;;;9.66;66.31
10366;BME280;5229;41.820;23.490;2023-05-07T03:32:46;90228.03;;;9.70;66.37
10366;BME280;5229;41.820;23.490;2023-05-07T03:35:12;90233.28;;;9.79;66.42
10366;BME280;5229;41.820;23.490;2023-05-07T03:37:39;90230.28;;;9.85;66.10
10366;BME280;5229;41.820;23.490;2023-05-07T03:40:09;90233.13;;;9.97;65.81
10366;BME280;5229;41.820;23.490;2023-05-07T03:42:37;90230.34;;;10.07;65.98
10366;BME280;5229;41.820;23.490;2023-05-07T03:45:05;90247.63;;;10.20;65.79
10366;BME280;5229;41.820;23.490;2023-05-07T03:47:32;90236.00;;;10.31;65.69
10366;BME280;5229;41.820;23.490;2023-05-07T03:49:58;90243.50;;;10.41;65.04
10366;BME280;5229;41.820;23.490;2023-05-07T03:52:25;90246.91;;;10.50;65.21
10366;BME280;5229;41.820;23.490;2023-05-07T03:54:52;90240.72;;;10.60;64.90
10366;BME280;5229;41.820;23.490;2023-05-07T03:57:20;90246.88;;;10.72;65.12
10366;BME280;5229;41.820;23.490;2023-05-07T03:59:47;90241.16;;;10.84;65.29
10366;BME280;5229;41.820;23.490;2023-05-07T04:02:14;90245.50;;;10.97;64.42
10366;BME280;5229;41.820;23.490;2023-05-07T04:04:41;90249.97;;;11.13;64.81
10366;BME280;5229;41.820;23.490;2023-05-07T04:07:08;90248.50;;;11.29;65.19
10366;BME280;5229;41.820;23.490;2023-05-07T04:09:35;90250.84;;;11.48;63.92
10366;BME280;5229;41.820;23.490;2023-05-07T04:12:02;90256.69;;;11.62;64.35
10366;BME280;5229;41.820;23.490;2023-05-07T04:14:30;90257.03;;;11.77;64.23
10366;BME280;5229;41.820;23.490;2023-05-07T04:16:57;90258.13;;;11.93;63.52
10366;BME280;5229;41.820;23.490;2023-05-07T04:19:24;90253.84;;;12.06;63.32
10366;BME280;5229;41.820;23.490;2023-05-07T04:21:51;90262.25;;;12.20;62.65
10366;BME280;5229;41.820;23.490;2023-05-07T04:24:18;90258.59;;;12.38;63.13
10366;BME280;5229;41.820;23.490;2023-05-07T04:26:45;90255.03;;;12.60;62.21
10366;BME280;5229;41.820;23.490;2023-05-07T04:29:12;90258.84;;;12.79;62.49
10366;BME280;5229;41.820;23.490;2023-05-07T04:31:40;90260.81;;;12.99;62.17
10366;BME280;5229;41.820;23.490;2023-05-07T04:34:09;90267.91;;;13.19;61.89
10366;BME280;5229;41.820;23.490;2023-05-07T04:36:37;90260.94;;;13.40;61.39
10366;BME280;5229;41.820;23.490;2023-05-07T04:39:04;90265.66;;;13.55;61.16
10366;BME280;5229;41.820;23.490;2023-05-07T04:41:31;90268.50;;;13.71;60.94
10366;BME280;5229;41.820;23.490;2023-05-07T04:43:58;90264.88;;;13.84;60.63
10366;BME280;5229;41.820;23.490;2023-05-07T04:46:25;90268.31;;;13.96;60.34
10366;BME280;5229;41.820;23.490;2023-05-07T04:48:53;90268.84;;;14.10;59.68
10366;BME280;5229;41.820;23.490;2023-05-07T04:51:20;90268.94;;;14.22;59.72
10366;BME280;5229;41.820;23.490;2023-05-07T04:53:48;90267.28;;;14.38;59.21
10366;BME280;5229;41.820;23.490;2023-05-07T04:56:15;90267.69;;;14.49;58.45
10366;BME280;5229;41.820;23.490;2023-05-07T04:58:42;90272.47;;;14.59;58.38
10366;BME280;5229;41.820;23.490;2023-05-07T05:01:09;90270.56;;;14.68;57.93
10366;BME280;5229;41.820;23.490;2023-05-07T05:03:36;90275.41;;;14.78;57.45
10366;BME280;5229;41.820;23.490;2023-05-07T05:06:04;90273.38;;;14.96;57.56
10366;BME280;5229;41.820;23.490;2023-05-07T05:08:31;90275.41;;;15.11;56.91
10366;BME280;5229;41.820;23.490;2023-05-07T05:10:58;90274.00;;;15.25;56.50
10366;BME280;5229;41.820;23.490;2023-05-07T05:13:25;90273.38;;;15.40;56.35
10366;BME280;5229;41.820;23.490;2023-05-07T05:15:51;90270.56;;;15.57;56.01
10366;BME280;5229;41.820;23.490;2023-05-07T05:18:18;90274.72;;;15.70;55.40
10366;BME280;5229;41.820;23.490;2023-05-07T05:20:45;90270.59;;;15.81;55.05
10366;BME280;5229;41.820;23.490;2023-05-07T05:23:13;90274.72;;;15.94;54.67
10366;BME280;5229;41.820;23.490;2023-05-07T05:25:40;90274.28;;;16.04;54.41
10366;BME280;5229;41.820;23.490;2023-05-07T05:28:07;90272.75;;;16.15;54.24
10366;BME280;5229;41.820;23.490;2023-05-07T05:30:34;90276.44;;;16.26;53.55
10366;BME280;5229;41.820;23.490;2023-05-07T05:33:01;90270.84;;;16.40;53.61
10366;BME280;5229;41.820;23.490;2023-05-07T05:35:27;90270.59;;;16.57;53.17
10366;BME280;5229;41.820;23.490;2023-05-07T05:37:54;90275.13;;;16.72;52.68
10366;BME280;5229;41.820;23.490;2023-05-07T05:40:22;90276.03;;;16.91;51.84
10366;BME280;5229;41.820;23.490;2023-05-07T05:42:49;90275.56;;;17.01;51.73
10366;BME280;5229;41.820;23.490;2023-05-07T05:45:16;90274.41;;;17.14;51.76
10366;BME280;5229;41.820;23.490;2023-05-07T05:47:43;90277.41;;;17.28;51.15
10366;BME280;5229;41.820;23.490;2023-05-07T05:50:10;90272.06;;;17.40;50.63
10366;BME280;5229;41.820;23.490;2023-05-07T05:52:36;90273.22;;;17.55;50.17
10366;BME280;5229;41.820;23.490;2023-05-07T05:55:04;90272.13;;;17.72;49.94
10366;BME280;5229;41.820;23.490;2023-05-07T05:57:32;90278.13;;;17.88;49.66
10366;BME280;5229;41.820;23.490;2023-05-07T06:00:00;90282.59;;;18.03;48.76
10366;BME280;5229;41.820;23.490;2023-05-07T06:02:27;90281.03;;;18.17;48.84
10366;BME280;5229;41.820;23.490;2023-05-07T06:04:53;90276.88;;;18.32;48.53
10366;BME280;5229;41.820;23.490;2023-05-07T06:07:20;90281.44;;;18.50;48.18
10366;BME280;5229;41.820;23.490;2023-05-07T06:09:47;90279.84;;;18.65;48.01
10366;BME280;5229;41.820;23.490;2023-05-07T06:12:14;90281.66;;;18.80;47.81
10366;BME280;5229;41.820;23.490;2023-05-07T06:14:44;90274.91;;;18.98;46.97
10366;BME280;5229;41.820;23.490;2023-05-07T06:17:10;90279.03;;;19.18;46.88
10366;BME280;5229;41.820;23.490;2023-05-07T06:19:37;90281.72;;;19.40;46.21
10366;BME280;5229;41.820;23.490;2023-05-07T06:22:04;90281.31;;;19.61;45.49
10366;BME280;5229;41.820;23.490;2023-05-07T06:24:31;90275.59;;;19.78;45.25
10366;BME280;5229;41.820;23.490;2023-05-07T06:26:57;90277.41;;;19.96;44.73
10366;BME280;5229;41.820;23.490;2023-05-07T06:29:24;90274.22;;;20.10;44.30
10366;BME280;5229;41.820;23.490;2023-05-07T06:31:53;90276.41;;;20.27;43.74
10366;BME280;5229;41.820;23.490;2023-05-07T06:34:20;90275.09;;;20.40;43.51
10366;BME280;5229;41.820;23.490;2023-05-07T06:36:47;90274.16;;;20.55;43.91
10366;BME280;5229;41.820;23.490;2023-05-07T06:39:13;90277.09;;;20.76;43.41
10366;BME280;5229;41.820;23.490;2023-05-07T06:41:40;90271.94;;;20.87;42.96
10366;BME280;5229;41.820;23.490;2023-05-07T06:44:07;90272.13;;;20.97;42.64
10366;BME280;5229;41.820;23.490;2023-05-07T06:46:34;90268.50;;;21.12;42.54
10366;BME280;5229;41.820;23.490;2023-05-07T06:49:02;90271.28;;;21.23;42.03
10366;BME280;5229;41.820;23.490;2023-05-07T06:51:30;90267.97;;;21.29;42.15
10366;BME280;5229;41.820;23.490;2023-05-07T06:53:56;90266.53;;;21.39;42.04
10366;BME280;5229;41.820;23.490;2023-05-07T06:56:23;90262.19;;;21.53;41.77
10366;BME280;5229;41.820;23.490;2023-05-07T06:58:50;90266.16;;;21.73;41.51
10366;BME280;5229;41.820;23.490;2023-05-07T07:01:17;90260.25;;;21.87;41.28
10366;BME280;5229;41.820;23.490;2023-05-07T07:03:44;90270.97;;;22.04;40.84
10366;BME280;5229;41.820;23.490;2023-05-07T07:06:12;90265.03;;;22.18;40.83
10366;BME280;5229;41.820;23.490;2023-05-07T07:08:39;90259.09;;;22.35;40.53
10366;BME280;5229;41.820;23.490;2023-05-07T07:11:06;90258.78;;;22.43;40.83
10366;BME280;5229;41.820;23.490;2023-05-07T07:13:32;90265.66;;;22.51;40.36
10366;BME280;5229;41.820;23.490;2023-05-07T07:15:59;90267.97;;;22.56;40.43
10366;BME280;5229;41.820;23.490;2023-05-07T07:18:27;90266.19;;;22.71;40.15
10366;BME280;5229;41.820;23.490;2023-05-07T07:20:53;90263.22;;;22.83;39.81
10366;BME280;5229;41.820;23.490;2023-05-07T07:23:22;90260.22;;;22.92;39.47
10366;BME280;5229;41.820;23.490;2023-05-07T07:25:48;90258.75;;;22.98;39.31
10366;BME280;5229;41.820;23.490;2023-05-07T07:28:15;90255.00;;;23.06;39.11
10366;BME280;5229;41.820;23.490;2023-05-07T07:30:42;90259.66;;;23.23;39.08
10366;BME280;5229;41.820;23.490;2023-05-07T07:33:09;90267.22;;;23.38;39.39
10366;BME280;5229;41.820;23.490;2023-05-07T07:35:36;90262.38;;;23.51;39.07
10366;BME280;5229;41.820;23.490;2023-05-07T07:38:03;90268.81;;;23.64;38.30
10366;BME280;5229;41.820;23.490;2023-05-07T07:40:31;90265.06;;;23.75;37.93
10366;BME280;5229;41.820;23.490;2023-05-07T07:42:58;90265.50;;;23.95;37.87
10366;BME280;5229;41.820;23.490;2023-05-07T07:45:26;90264.38;;;24.17;37.86
10366;BME280;5229;41.820;23.490;2023-05-07T07:47:53;90257.56;;;24.44;37.48
10366;BME280;5229;41.820;23.490;2023-05-07T07:50:20;90271.97;;;24.64;36.89
10366;BME280;5229;41.820;23.490;2023-05-07T07:52:47;90269.25;;;24.85;36.43
10366;BME280;5229;41.820;23.490;2023-05-07T07:55:14;90274.91;;;25.01;36.38
10366;BME280;5229;41.820;23.490;2023-05-07T07:57:47;90269.56;;;25.15;35.99
10366;BME280;5229;41.820;23.490;2023-05-07T08:00:15;90269.13;;;25.27;36.47
10366;BME280;5229;41.820;23.490;2023-05-07T08:02:42;90268.38;;;25.37;35.99
10366;BME280;5229;41.820;23.490;2023-05-07T08:05:09;90271.38;;;25.42;35.61
10366;BME280;5229;41.820;23.490;2023-05-07T08:07:36;90268.66;;;25.60;35.01
10366;BME280;5229;41.820;23.490;2023-05-07T08:10:03;90260.63;;;25.71;34.45
10366;BME280;5229;41.820;23.490;2023-05-07T08:12:30;90260.91;;;25.83;35.09
10366;BME280;5229;41.820;23.490;2023-05-07T08:14:58;90266.91;;;26.01;34.41
10366;BME280;5229;41.820;23.490;2023-05-07T08:17:25;90258.44;;;26.20;34.23
10366;BME280;5229;41.820;23.490;2023-05-07T08:19:52;90263.28;;;26.32;33.57
10366;BME280;5229;41.820;23.490;2023-05-07T08:22:18;90259.69;;;26.53;33.18
10366;BME280;5229;41.820;23.490;2023-05-07T08:24:46;90260.72;;;26.69;33.05
10366;BME280;5229;41.820;23.490;2023-05-07T08:27:12;90261.41;;;27.14;32.95
10366;BME280;5229;41.820;23.490;2023-05-07T08:29:39;90257.19;;;27.83;31.97
10366;BME280;5229;41.820;23.490;2023-05-07T08:32:07;90258.38;;;28.82;30.26
10366;BME280;5229;41.820;23.490;2023-05-07T08:34:34;90267.41;;;30.08;29.04
10366;BME280;5229;41.820;23.490;2023-05-07T08:37:01;90259.63;;;31.42;26.76
10366;BME280;5229;41.820;23.490;2023-05-07T08:39:28;90255.56;;;32.57;25.86
10366;BME280;5229;41.820;23.490;2023-05-07T08:41:55;90263.66;;;33.85;23.80
10366;BME280;5229;41.820;23.490;2023-05-07T08:44:23;90266.03;;;35.14;22.82
10366;BME280;5229;41.820;23.490;2023-05-07T08:46:53;90268.41;;;36.47;21.28
10366;BME280;5229;41.820;23.490;2023-05-07T08:49:23;90276.38;;;37.72;19.46
10366;BME280;5229;41.820;23.490;2023-05-07T08:51:50;90278.06;;;38.80;18.77
10366;BME280;5229;41.820;23.490;2023-05-07T08:54:17;90280.91;;;39.75;18.30
10366;BME280;5229;41.820;23.490;2023-05-07T08:56:45;90273.34;;;40.76;17.28
10366;BME280;5229;41.820;23.490;2023-05-07T08:59:11;90269.84;;;41.43;16.45
10366;BME280;5229;41.820;23.490;2023-05-07T09:01:38;90282.16;;;41.75;15.96
10366;BME280;5229;41.820;23.490;2023-05-07T09:04:05;90283.63;;;41.70;16.13
10366;BME280;5229;41.820;23.490;2023-05-07T09:06:34;90278.78;;;41.96;15.83
10366;BME280;5229;41.820;23.490;2023-05-07T09:09:03;90276.06;;;41.96;15.35
10366;BME280;5229;41.820;23.490;2023-05-07T09:11:30;90280.81;;;42.01;14.89
10366;BME280;5229;41.820;23.490;2023-05-07T09:13:57;90272.16;;;42.08;14.87
10366;BME280;5229;41.820;23.490;2023-05-07T09:16:27;90277.38;;;42.17;14.67
10366;BME280;5229;41.820;23.490;2023-05-07T09:18:54;90273.25;;;42.44;14.57
10366;BME280;5229;41.820;23.490;2023-05-07T09:21:21;90272.50;;;42.43;14.06
10366;BME280;5229;41.820;23.490;2023-05-07T09:23:51;90270.28;;;42.53;14.27
10366;BME280;5229;41.820;23.490;2023-05-07T09:26:18;90269.34;;;42.72;14.22
10366;BME280;5229;41.820;23.490;2023-05-07T09:28:47;90265.84;;;43.05;13.71
10366;BME280;5229;41.820;23.490;2023-05-07T09:31:14;90268.56;;;43.33;13.94
10366;BME280;5229;41.820;23.490;2023-05-07T09:33:41;90270.97;;;43.64;13.74
10366;BME280;5229;41.820;23.490;2023-05-07T09:36:09;90263.56;;;43.59;13.59
10366;BME280;5229;41.820;23.490;2023-05-07T09:38:37;90265.56;;;43.42;13.31
10366;BME280;5229;41.820;23.490;2023-05-07T09:41:07;90262.84;;;43.36;13.59
10366;BME280;5229;41.820;23.490;2023-05-07T09:43:35;90264.31;;;43.32;13.58
10366;BME280;5229;41.820;23.490;2023-05-07T09:46:12;90254.13;;;43.49;13.74
10366;BME280;5229;41.820;23.490;2023-05-07T09:48:40;90251.81;;;43.80;12.98
10366;BME280;5229;41.820;23.490;2023-05-07T09:51:16;90248.22;;;44.07;12.36
10366;BME280;5229;41.820;23.490;2023-05-07T09:53:45;90248.72;;;44.06;12.13
10366;BME280;5229;41.820;23.490;2023-05-07T09:56:14;90246.56;;;43.88;12.01
10366;BME280;5229;41.820;23.490;2023-05-07T09:58:43;90243.63;;;43.75;11.69
10366;BME280;5229;41.820;23.490;2023-05-07T10:01:10;90243.63;;;43.75;12.21
10366;BME280;5229;41.820;23.490;2023-05-07T10:03:39;90238.13;;;43.86;11.67
10366;BME280;5229;41.820;23.490;2023-05-07T10:06:08;90243.31;;;43.95;11.13
10366;BME280;5229;41.820;23.490;2023-05-07T10:08:36;90242.59;;;43.89;11.51
10366;BME280;5229;41.820;23.490;2023-05-07T10:11:03;90233.63;;;43.94;11.85
10366;BME280;5229;41.820;23.490;2023-05-07T10:13:32;90240.28;;;44.04;11.59
10366;BME280;5229;41.820;23.490;2023-05-07T10:16:02;90236.31;;;43.99;11.17
10366;BME280;5229;41.820;23.490;2023-05-07T10:18:30;90232.34;;;43.95;11.68
10366;BME280;5229;41.820;23.490;2023-05-07T10:21:04;90230.81;;;44.05;12.37
10366;BME280;5229;41.820;23.490;2023-05-07T10:23:34;90227.06;;;44.08;12.26
10366;BME280;5229;41.820;23.490;2023-05-07T10:26:02;90224.88;;;44.01;12.28
10366;BME280;5229;41.820;23.490;2023-05-07T10:28:37;90221.25;;;43.82;12.28
10366;BME280;5229;41.820;23.490;2023-05-07T10:31:14;90210.22;;;42.92;13.02
10366;BME280;5229;41.820;23.490;2023-05-07T10:33:46;90199.78;;;41.07;13.88
10366;BME280;5229;41.820;23.490;2023-05-07T10:36:16;90204.41;;;39.22;15.04
10366;BME280;5229;41.820;23.490;2023-05-07T10:38:42;90197.63;;;37.75;16.51
10366;BME280;5229;41.820;23.490;2023-05-07T10:41:10;90179.91;;;36.57;16.74
10366;BME280;5229;41.820;23.490;2023-05-07T10:43:43;90173.88;;;35.51;17.30
10366;BME280;5229;41.820;23.490;2023-05-07T10:46:11;90179.81;;;34.74;18.69
10366;BME280;5229;41.820;23.490;2023-05-07T10:49:11;90176.13;;;34.11;19.62
10366;BME280;5229;41.820;23.490;2023-05-07T10:51:38;90169.91;;;33.40;19.64
10366;BME280;5229;41.820;23.490;2023-05-07T10:54:25;90164.22;;;32.57;19.64
10366;BME280;5229;41.820;23.490;2023-05-07T10:56:52;90161.25;;;32.05;20.78
10366;BME280;5229;41.820;23.490;2023-05-07T10:59:38;90159.50;;;31.61;21.90
10366;BME280;5229;41.820;23.490;2023-05-07T11:02:08;90164.59;;;31.31;22.16
10366;BME280;5229;41.820;23.490;2023-05-07T11:04:36;90157.06;;;30.97;22.92
10366;BME280;5229;41.820;23.490;2023-05-07T11:10:03;90161.69;;;30.20;23.89
10366;BME280;5229;41.820;23.490;2023-05-07T11:12:47;90161.78;;;29.81;23.76
10366;BME280;5229;41.820;23.490;2023-05-07T11:15:36;90156.25;;;29.52;23.96
10366;BME280;5229;41.820;23.490;2023-05-07T11:18:03;90155.13;;;29.34;23.82
10366;BME280;5229;41.820;23.490;2023-05-07T11:21:00;90159.22;;;28.99;24.42
10366;BME280;5229;41.820;23.490;2023-05-07T11:26:45;90156.66;;;28.53;24.67
10366;BME280;5229;41.820;23.490;2023-05-07T11:29:14;90148.66;;;28.30;24.02
10366;BME280;5229;41.820;23.490;2023-05-07T11:31:42;90144.00;;;28.11;24.69
10366;BME280;5229;41.820;23.490;2023-05-07T11:34:09;90148.47;;;27.94;25.03
10366;BME280;5229;41.820;23.490;2023-05-07T11:36:42;90147.16;;;27.79;25.33
10366;BME280;5229;41.820;23.490;2023-05-07T11:39:26;90144.38;;;27.60;25.71
10366;BME280;5229;41.820;23.490;2023-05-07T11:41:54;90146.44;;;27.49;25.74
10366;BME280;5229;41.820;23.490;2023-05-07T11:44:20;90144.81;;;27.28;25.93
10366;BME280;5229;41.820;23.490;2023-05-07T11:46:49;90149.16;;;27.15;26.84
10366;BME280;5229;41.820;23.490;2023-05-07T11:49:16;90150.47;;;27.00;27.31
10366;BME280;5229;41.820;23.490;2023-05-07T11:51:43;90146.47;;;26.85;27.34
10366;BME280;5229;41.820;23.490;2023-05-07T11:54:15;90147.78;;;26.70;27.52
10366;BME280;5229;41.820;23.490;2023-05-07T11:56:44;90147.91;;;26.56;27.61
10366;BME280;5229;41.820;23.490;2023-05-07T11:59:11;90147.34;;;26.35;27.89
10366;BME280;5229;41.820;23.490;2023-05-07T12:01:38;90137.91;;;26.30;28.17
10366;BME280;5229;41.820;23.490;2023-05-07T12:04:06;90132.94;;;26.32;28.39
10366;BME280;5229;41.820;23.490;2023-05-07T12:06:36;90143.19;;;26.34;28.79
10366;BME280;5229;41.820;23.490;2023-05-07T12:09:04;90139.75;;;26.33;28.70
10366;BME280;5229;41.820;23.490;2023-05-07T12:11:32;90139.75;;;26.33;28.74
10366;BME280;5229;41.820;23.490;2023-05-07T12:13:59;90135.97;;;26.34;28.49
10366;BME280;5229;41.820;23.490;2023-05-07T12:16:26;90137.91;;;26.30;28.44
10366;BME280;5229;41.820;23.490;2023-05-07T12:18:53;90129.25;;;26.19;28.13
10366;BME280;5229;41.820;23.490;2023-05-07T12:21:22;90122.94;;;26.06;28.29
10366;BME280;5229;41.820;23.490;2023-05-07T12:23:50;90121.09;;;26.00;28.62
10366;BME280;5229;41.820;23.490;2023-05-07T12:26:19;90121.88;;;25.93;28.95
10366;BME280;5229;41.820;23.490;2023-05-07T12:28:46;90118.13;;;25.87;28.79
10366;BME280;5229;41.820;23.490;2023-05-07T12:31:14;90118.88;;;25.88;28.82
10366;BME280;5229;41.820;23.490;2023-05-07T12:33:41;90113.94;;;25.90;29.34
10366;BME280;5229;41.820;23.490;2023-05-07T12:36:08;90112.41;;;25.92;29.34
10366;BME280;5229;41.820;23.490;2023-05-07T12:38:38;90110.09;;;25.94;29.02
10366;BME280;5229;41.820;23.490;2023-05-07T12:41:06;90100.63;;;25.93;28.95
10366;BME280;5229;41.820;23.490;2023-05-07T12:43:33;90104.09;;;25.87;28.86
10366;BME280;5229;41.820;23.490;2023-05-07T12:46:01;90094.63;;;25.82;28.52
10366;BME280;5229;41.820;23.490;2023-05-07T12:48:29;90091.66;;;25.77;28.89
10366;BME280;5229;41.820;23.490;2023-05-07T12:50:57;90091.31;;;25.71;28.33
10366;BME280;5229;41.820;23.490;2023-05-07T12:53:25;90084.19;;;25.65;28.44
10366;BME280;5229;41.820;23.490;2023-05-07T12:55:54;90084.19;;;25.61;28.90
10366;BME280;5229;41.820;23.490;2023-05-07T12:58:24;90089.16;;;25.56;28.55
10366;BME280;5229;41.820;23.490;2023-05-07T13:00:51;90085.06;;;25.44;28.94
10366;BME280;5229;41.820;23.490;2023-05-07T13:03:23;90082.84;;;25.35;28.87
10366;BME280;5229;41.820;23.490;2023-05-07T13:05:50;90082.84;;;25.35;29.37
10366;BME280;5229;41.820;23.490;2023-05-07T13:08:27;90075.66;;;25.32;29.26
10366;BME280;5229;41.820;23.490;2023-05-07T13:10:57;90091.94;;;25.38;29.33